createdAt,value
2023-03-06T00:01:58.894Z,0.74
2023-03-06T00:04:33.262Z,0.70
2023-03-06T00:07:07.611Z,0.70
2023-03-06T00:09:42.089Z,0.70
2023-03-06T00:12:16.565Z,0.62
2023-03-06T00:14:51.173Z,0.60
2023-03-06T00:17:25.797Z,0.58
2023-03-06T00:20:00.356Z,0.50
2023-03-06T00:22:34.665Z,0.50
2023-03-06T00:25:13.818Z,0.50
2023-03-06T00:27:48.551Z,0.50
2023-03-06T00:30:26.233Z,0.52
2023-03-06T00:33:00.707Z,0.56
2023-03-06T00:35:35.349Z,0.50
2023-03-06T00:38:11.177Z,0.50
2023-03-06T00:40:45.581Z,0.50
2023-03-06T00:43:19.905Z,0.50
2023-03-06T00:45:54.183Z,0.50
2023-03-06T00:48:28.450Z,0.50
2023-03-06T00:51:03.158Z,0.60
2023-03-06T00:53:37.960Z,0.60
2023-03-06T00:56:13.492Z,0.62
2023-03-06T00:58:47.847Z,0.66
2023-03-06T01:01:23.271Z,0.70
2023-03-06T01:03:58.447Z,0.70
2023-03-06T01:06:33.428Z,0.70
2023-03-06T01:09:10.823Z,0.70
2023-03-06T01:11:45.209Z,0.80
2023-03-06T01:14:20.318Z,0.90
2023-03-06T01:16:54.698Z,0.90
2023-03-06T01:19:28.952Z,1.00
2023-03-06T01:22:03.421Z,1.00
2023-03-06T01:24:39.222Z,1.10
2023-03-06T01:27:13.579Z,1.10
2023-03-06T01:29:48.949Z,1.20
2023-03-06T01:32:23.353Z,1.20
2023-03-06T01:34:58.400Z,1.20
2023-03-06T01:37:32.697Z,1.26
2023-03-06T01:40:09.751Z,1.24
2023-03-06T01:42:46.784Z,1.30
2023-03-06T01:46:38.121Z,1.30
2023-03-06T01:49:26.525Z,1.30
2023-03-06T01:52:08.108Z,1.32
2023-03-06T01:54:46.700Z,1.30
2023-03-06T01:57:25.627Z,1.30
2023-03-06T02:00:09.701Z,1.30
2023-03-06T02:02:55.166Z,1.30
2023-03-06T02:05:30.040Z,1.30
2023-03-06T02:08:06.948Z,1.40
2023-03-06T02:10:42.052Z,1.40
2023-03-06T02:13:16.455Z,1.40
2023-03-06T02:15:50.949Z,1.40
2023-03-06T02:18:28.821Z,1.30
2023-03-06T02:21:07.319Z,1.30
2023-03-06T02:23:57.679Z,1.38
2023-03-06T02:26:34.741Z,1.40
2023-03-06T02:29:10.846Z,1.40
2023-03-06T02:31:45.181Z,1.40
2023-03-06T02:34:55.062Z,1.40
2023-03-06T02:37:31.133Z,1.40
2023-03-06T02:40:18.102Z,1.40
2023-03-06T02:42:56.573Z,1.50
2023-03-06T02:45:38.561Z,1.50
2023-03-06T02:48:14.204Z,1.50
2023-03-06T02:50:49.996Z,1.50
2023-03-06T02:53:25.211Z,1.50
2023-03-06T02:55:59.497Z,1.50
2023-03-06T02:58:33.825Z,1.50
2023-03-06T03:01:09.375Z,1.50
2023-03-06T03:03:43.919Z,1.50
2023-03-06T03:06:18.392Z,1.42
2023-03-06T03:08:52.981Z,1.40
2023-03-06T03:11:27.937Z,1.40
2023-03-06T03:14:04.530Z,1.40
2023-03-06T03:16:39.364Z,1.40
2023-03-06T03:19:13.932Z,1.40
2023-03-06T03:21:48.463Z,1.40
2023-03-06T03:24:23.028Z,1.40
2023-03-06T03:26:57.964Z,1.40
2023-03-06T03:29:32.681Z,1.40
2023-03-06T03:32:08.278Z,1.40
2023-03-06T03:34:43.704Z,1.46
2023-03-06T03:37:18.020Z,1.50
2023-03-06T03:39:52.848Z,1.50
2023-03-06T03:42:28.157Z,1.50
2023-03-06T03:45:02.553Z,1.50
2023-03-06T03:47:37.675Z,1.50
2023-03-06T03:50:16.395Z,1.50
2023-03-06T03:52:51.075Z,1.54
2023-03-06T03:55:25.790Z,1.52
2023-03-06T03:58:00.432Z,1.56
2023-03-06T04:00:35.834Z,1.58
2023-03-06T04:03:16.895Z,1.60
2023-03-06T04:05:54.464Z,1.60
2023-03-06T04:08:29.786Z,1.60
2023-03-06T04:11:05.595Z,1.60
2023-03-06T04:13:39.925Z,1.60
2023-03-06T04:16:14.350Z,1.60
2023-03-06T04:18:48.640Z,1.60
2023-03-06T04:21:24.108Z,1.70
2023-03-06T04:23:58.631Z,1.70
2023-03-06T04:26:33.362Z,1.70
2023-03-06T04:29:07.797Z,1.70
2023-03-06T04:31:42.163Z,1.70
2023-03-06T04:34:16.626Z,1.70
2023-03-06T04:36:51.335Z,1.70
2023-03-06T04:39:25.822Z,1.70
2023-03-06T04:42:00.217Z,1.70
2023-03-06T04:44:34.460Z,1.70
2023-03-06T04:47:10.392Z,1.70
2023-03-06T04:49:44.861Z,1.70
2023-03-06T04:52:19.321Z,1.70
2023-03-06T04:54:53.648Z,1.70
2023-03-06T04:57:28.283Z,1.76
2023-03-06T05:00:03.006Z,1.80
2023-03-06T05:02:38.146Z,1.80
2023-03-06T05:05:15.221Z,1.90
2023-03-06T05:07:49.973Z,1.90
2023-03-06T05:10:24.557Z,1.90
2023-03-06T05:12:59.246Z,1.90
2023-03-06T05:15:33.819Z,1.90
2023-03-06T05:18:08.702Z,1.90
2023-03-06T05:20:43.196Z,1.90
2023-03-06T05:23:17.804Z,1.92
2023-03-06T05:25:52.216Z,2.00
2023-03-06T05:28:28.718Z,2.00
2023-03-06T05:31:03.599Z,2.10
2023-03-06T05:33:39.042Z,2.10
2023-03-06T05:36:14.682Z,2.10
2023-03-06T05:38:49.204Z,2.20
2023-03-06T05:41:23.705Z,2.20
2023-03-06T05:43:58.949Z,2.20
2023-03-06T05:46:33.623Z,2.30
2023-03-06T05:49:08.044Z,2.30
2023-03-06T05:51:42.253Z,2.34
2023-03-06T05:54:16.661Z,2.40
2023-03-06T05:56:51.174Z,2.40
2023-03-06T05:59:28.159Z,2.50
2023-03-06T06:02:05.585Z,2.50
2023-03-06T06:04:40.109Z,2.50
2023-03-06T06:07:18.483Z,2.54
2023-03-06T06:09:55.944Z,2.60
2023-03-06T06:12:31.012Z,2.60
2023-03-06T06:15:06.631Z,2.68
2023-03-06T06:17:41.602Z,2.70
2023-03-06T06:20:17.452Z,2.70
2023-03-06T06:22:52.238Z,2.80
2023-03-06T06:25:26.593Z,2.80
2023-03-06T06:28:01.329Z,2.90
2023-03-06T06:30:36.451Z,2.90
2023-03-06T06:33:11.118Z,3.00
2023-03-06T06:35:45.372Z,3.10
2023-03-06T06:38:20.258Z,3.10
2023-03-06T06:41:27.197Z,3.18
2023-03-06T06:43:49.554Z,3.20
2023-03-06T06:47:10.791Z,3.30
2023-03-06T06:49:19.234Z,3.30
2023-03-06T06:51:53.581Z,3.30
2023-03-06T06:54:28.515Z,3.40
2023-03-06T06:57:03.089Z,3.50
2023-03-06T06:59:37.196Z,3.56
2023-03-06T07:02:14.110Z,3.60
2023-03-06T07:05:02.537Z,3.70
2023-03-06T07:07:40.311Z,3.80
2023-03-06T07:10:20.071Z,3.90
2023-03-06T07:12:56.645Z,3.90
2023-03-06T07:15:31.861Z,4.00
2023-03-06T07:18:06.534Z,4.06
2023-03-06T07:20:41.031Z,4.10
2023-03-06T07:23:17.495Z,4.20
2023-03-06T07:25:52.480Z,4.20
2023-03-06T07:28:27.314Z,4.30
2023-03-06T07:31:02.116Z,4.30
2023-03-06T07:33:36.643Z,4.40
2023-03-06T07:36:14.467Z,4.44
2023-03-06T07:38:49.600Z,4.50
2023-03-06T07:41:24.252Z,4.60
2023-03-06T07:43:59.763Z,4.70
2023-03-06T07:46:34.323Z,4.80
2023-03-06T07:49:08.635Z,4.80
2023-03-06T07:51:43.384Z,4.88
2023-03-06T07:54:17.687Z,4.90
2023-03-06T07:56:54.888Z,4.90
2023-03-06T07:59:30.476Z,5.00
2023-03-06T08:02:04.756Z,5.10
2023-03-06T08:04:39.554Z,5.20
2023-03-06T08:07:14.282Z,5.28
2023-03-06T08:09:48.474Z,5.30
2023-03-06T08:12:23.570Z,5.40
2023-03-06T08:14:58.324Z,5.50
2023-03-06T08:17:32.756Z,5.50
2023-03-06T08:20:10.501Z,5.58
2023-03-06T08:22:45.087Z,5.60
2023-03-06T08:25:19.296Z,5.60
2023-03-06T08:27:53.553Z,5.70
2023-03-06T08:30:28.109Z,5.90
2023-03-06T08:33:02.626Z,5.90
2023-03-06T08:35:38.506Z,5.90
2023-03-06T08:38:13.062Z,5.80
2023-03-06T08:40:47.696Z,5.90
2023-03-06T08:43:22.227Z,5.90
2023-03-06T08:45:59.862Z,5.96
2023-03-06T08:49:29.483Z,6.00
2023-03-06T08:52:04.787Z,6.00
2023-03-06T08:54:40.978Z,6.00
2023-03-06T08:57:15.172Z,6.00
2023-03-06T08:59:49.343Z,6.10
2023-03-06T09:02:24.082Z,6.20
2023-03-06T09:04:59.540Z,6.20
2023-03-06T09:07:34.604Z,6.20
2023-03-06T09:10:14.216Z,6.28
2023-03-06T09:12:51.974Z,6.30
2023-03-06T09:15:28.420Z,6.30
2023-03-06T09:18:02.939Z,6.40
2023-03-06T09:20:37.529Z,6.40
2023-03-06T09:23:12.136Z,6.50
2023-03-06T09:25:46.575Z,6.52
2023-03-06T09:28:20.923Z,6.62
2023-03-06T09:30:56.218Z,6.70
2023-03-06T09:33:33.403Z,6.78
2023-03-06T09:36:11.228Z,6.90
2023-03-06T09:38:48.019Z,7.00
2023-03-06T09:41:32.896Z,7.10
2023-03-06T09:44:14.740Z,7.30
2023-03-06T09:47:31.943Z,7.42
2023-03-06T09:50:29.079Z,7.60
2023-03-06T09:53:21.710Z,7.70
2023-03-06T09:56:07.174Z,7.80
2023-03-06T09:58:50.402Z,7.90
2023-03-06T10:01:29.748Z,8.04
2023-03-06T10:04:24.447Z,8.10
2023-03-06T10:07:54.101Z,8.10
2023-03-06T10:10:41.991Z,8.10
2023-03-06T10:13:26.590Z,8.10
2023-03-06T10:16:21.312Z,8.10
2023-03-06T10:18:58.367Z,8.08
2023-03-06T10:21:46.765Z,7.90
2023-03-06T10:24:49.476Z,7.80
2023-03-06T10:27:43.475Z,7.80
2023-03-06T10:30:39.937Z,7.80
2023-03-06T10:33:30.192Z,7.70
2023-03-06T10:36:05.265Z,7.60
2023-03-06T10:38:40.778Z,7.60
2023-03-06T10:41:29.540Z,7.60
2023-03-06T10:44:26.731Z,7.60
2023-03-06T10:47:20.748Z,7.70
2023-03-06T10:50:07.302Z,7.70
2023-03-06T10:52:42.545Z,7.70
2023-03-06T10:55:33.170Z,7.70
2023-03-06T10:58:24.362Z,7.60
2023-03-06T11:01:25.059Z,7.60
2023-03-06T11:04:26.139Z,7.60
2023-03-06T11:07:20.677Z,7.50
2023-03-06T11:10:18.428Z,7.40
2023-03-06T11:13:06.309Z,7.42
2023-03-06T11:15:41.413Z,7.50
2023-03-06T11:18:36.117Z,7.54
2023-03-06T11:21:32.305Z,7.60
2023-03-06T11:24:19.673Z,7.70
2023-03-06T11:27:00.892Z,7.70
2023-03-06T11:29:43.771Z,7.76
2023-03-06T11:32:24.019Z,7.80
2023-03-06T11:35:07.079Z,7.82
2023-03-06T11:37:53.317Z,7.90
2023-03-06T11:40:38.574Z,8.10
2023-03-06T11:43:24.558Z,8.20
2023-03-06T11:46:08.599Z,8.20
2023-03-06T11:48:51.081Z,8.10
2023-03-06T11:51:31.922Z,8.10
2023-03-06T11:54:07.796Z,8.10
2023-03-06T11:56:58.032Z,8.10
2023-03-06T12:00:08.203Z,8.20
2023-03-06T12:03:30.394Z,8.20
2023-03-06T12:06:17.737Z,8.00
2023-03-06T12:09:06.205Z,7.92
2023-03-06T12:11:54.948Z,7.90
2023-03-06T12:14:45.268Z,7.86
2023-03-06T12:17:39.444Z,7.90
2023-03-06T12:20:41.418Z,7.86
2023-03-06T12:23:38.394Z,7.86
2023-03-06T12:26:41.404Z,7.80
2023-03-06T12:29:39.852Z,7.80
2023-03-06T12:32:39.754Z,7.90
2023-03-06T12:36:00.974Z,8.10
2023-03-06T12:39:06.415Z,8.20
2023-03-06T12:41:58.592Z,8.10
2023-03-06T12:45:03.107Z,7.90
2023-03-06T12:47:45.791Z,7.70
2023-03-06T12:50:28.359Z,7.50
2023-03-06T12:53:06.788Z,7.40
2023-03-06T12:55:47.955Z,7.20
2023-03-06T12:58:52.965Z,6.94
2023-03-06T13:02:08.536Z,6.60
2023-03-06T13:05:05.198Z,6.10
2023-03-06T13:08:05.318Z,5.70
2023-03-06T13:10:44.964Z,5.30
2023-03-06T13:13:43.045Z,5.00
2023-03-06T13:16:31.481Z,4.70
2023-03-06T13:19:20.250Z,4.56
2023-03-06T13:22:30.761Z,4.40
2023-03-06T13:25:52.307Z,4.40
2023-03-06T13:28:45.106Z,4.34
2023-03-06T13:31:50.383Z,4.24
2023-03-06T13:37:52.496Z,3.98
2023-03-06T13:40:38.195Z,3.90
2023-03-06T13:43:25.201Z,3.86
2023-03-06T13:46:15.535Z,3.90
2023-03-06T13:49:07.308Z,3.90
2023-03-06T13:51:44.360Z,3.90
2023-03-06T13:54:33.941Z,3.90
2023-03-06T13:57:41.150Z,3.88
2023-03-06T14:00:45.505Z,3.80
2023-03-06T14:04:16.735Z,3.80
2023-03-06T14:07:12.639Z,3.78
2023-03-06T14:09:51.349Z,3.70
2023-03-06T14:12:31.793Z,3.70
2023-03-06T14:15:17.742Z,3.70
2023-03-06T14:18:01.690Z,3.70
2023-03-06T14:20:46.326Z,3.70
2023-03-06T14:23:35.686Z,3.80
2023-03-06T14:26:17.832Z,3.80
2023-03-06T14:29:01.766Z,3.90
2023-03-06T14:31:42.733Z,3.92
2023-03-06T14:34:25.508Z,4.08
2023-03-06T14:37:05.566Z,4.20
2023-03-06T14:39:43.046Z,4.38
2023-03-06T14:42:24.279Z,4.50
2023-03-06T14:45:18.711Z,4.70
2023-03-06T14:47:57.287Z,4.86
2023-03-06T14:50:35.654Z,5.00
2023-03-06T14:53:18.762Z,5.20
2023-03-06T14:55:58.221Z,5.40
2023-03-06T14:58:37.742Z,5.60
2023-03-06T15:01:14.787Z,5.80
2023-03-06T15:03:53.012Z,5.90
2023-03-06T15:06:33.318Z,6.00
2023-03-06T15:09:16.278Z,6.10
2023-03-06T15:12:35.049Z,6.10
2023-03-06T15:15:31.819Z,6.10
2023-03-06T15:18:19.834Z,6.10
2023-03-06T15:21:06.847Z,6.20
2023-03-06T15:23:43.925Z,6.28
2023-03-06T15:26:33.417Z,6.30
2023-03-06T15:29:24.327Z,6.30
2023-03-06T15:32:29.236Z,6.30
2023-03-06T15:35:34.654Z,6.20
2023-03-06T15:38:32.000Z,6.12
2023-03-06T15:41:12.729Z,6.00
2023-03-06T15:43:47.567Z,6.00
2023-03-06T15:46:21.785Z,5.92
2023-03-06T15:49:03.195Z,5.90
2023-03-06T15:51:37.901Z,5.90
2023-03-06T15:54:12.966Z,5.80
2023-03-06T15:56:50.929Z,5.80
2023-03-06T15:59:33.263Z,5.70
2023-03-06T16:02:17.769Z,5.70
2023-03-06T16:04:53.503Z,5.70
2023-03-06T16:07:28.400Z,5.62
2023-03-06T16:10:03.604Z,5.60
2023-03-06T16:12:38.847Z,5.42
2023-03-06T16:15:23.008Z,5.30
2023-03-06T16:17:57.683Z,5.20
2023-03-06T16:20:33.746Z,5.10
2023-03-06T16:23:10.584Z,5.00
2023-03-06T16:25:48.956Z,4.90
2023-03-06T16:28:23.496Z,4.70
2023-03-06T16:30:58.024Z,4.60
2023-03-06T16:33:32.528Z,4.50
2023-03-06T16:36:15.169Z,4.40
2023-03-06T16:38:49.694Z,4.30
2023-03-06T16:41:25.273Z,4.20
2023-03-06T16:43:59.855Z,4.10
2023-03-06T16:46:38.349Z,4.00
2023-03-06T16:49:19.322Z,3.98
2023-03-06T16:51:55.851Z,3.90
2023-03-06T16:54:30.785Z,3.80
2023-03-06T16:57:05.768Z,3.76
2023-03-06T16:59:40.101Z,3.70
2023-03-06T17:02:15.157Z,3.70
2023-03-06T17:04:49.961Z,3.70
2023-03-06T17:07:24.584Z,3.60
2023-03-06T17:09:59.567Z,3.60
2023-03-06T17:12:34.601Z,3.60
2023-03-06T17:15:12.546Z,3.60
2023-03-06T17:17:47.452Z,3.60
2023-03-06T17:20:23.912Z,3.50
2023-03-06T17:22:58.823Z,3.50
2023-03-06T17:25:35.144Z,3.40
2023-03-06T17:28:10.781Z,3.40
2023-03-06T17:30:45.710Z,3.32
2023-03-06T17:33:20.568Z,3.30
2023-03-06T17:36:00.648Z,3.20
2023-03-06T17:38:35.299Z,3.18
2023-03-06T17:41:12.459Z,3.10
2023-03-06T17:43:47.301Z,3.00
2023-03-06T17:46:22.644Z,2.98
2023-03-06T17:48:57.734Z,2.90
2023-03-06T17:51:32.130Z,2.80
2023-03-06T17:54:06.635Z,2.80
2023-03-06T17:56:41.713Z,2.74
2023-03-06T17:59:19.244Z,2.70
2023-03-06T18:01:54.029Z,2.70
2023-03-06T18:04:28.932Z,2.70
2023-03-06T18:07:03.921Z,2.70
2023-03-06T18:09:38.960Z,2.70
2023-03-06T18:12:14.125Z,2.70
2023-03-06T18:14:49.353Z,2.60
2023-03-06T18:17:24.031Z,2.60
2023-03-06T18:19:58.787Z,2.60
2023-03-06T18:22:33.905Z,2.50
2023-03-06T18:25:10.407Z,2.50
2023-03-06T18:27:45.113Z,2.40
2023-03-06T18:30:21.328Z,2.40
2023-03-06T18:32:56.490Z,2.40
2023-03-06T18:35:31.278Z,2.40
2023-03-06T18:38:06.294Z,2.50
2023-03-06T18:40:42.510Z,2.50
2023-03-06T18:43:17.567Z,2.52
2023-03-06T18:46:00.002Z,2.60
2023-03-06T18:48:35.665Z,2.60
2023-03-06T18:51:14.211Z,2.62
2023-03-06T18:53:49.586Z,2.60
2023-03-06T18:56:25.357Z,2.60
2023-03-06T18:59:01.885Z,2.60
2023-03-06T19:01:37.815Z,2.60
2023-03-06T19:04:12.859Z,2.58
2023-03-06T19:06:48.144Z,2.58
2023-03-06T19:09:22.841Z,2.50
2023-03-06T19:11:58.718Z,2.50
2023-03-06T19:14:33.561Z,2.50
2023-03-06T19:17:08.343Z,2.50
2023-03-06T19:19:43.226Z,2.46
2023-03-06T19:22:18.168Z,2.40
2023-03-06T19:24:53.227Z,2.40
2023-03-06T19:27:28.153Z,2.42
2023-03-06T19:30:02.684Z,2.42
2023-03-06T19:32:37.868Z,2.40
2023-03-06T19:35:13.652Z,2.40
2023-03-06T19:37:48.695Z,2.40
2023-03-06T19:40:23.727Z,2.40
2023-03-06T19:43:59.444Z,2.40
2023-03-06T19:46:36.372Z,2.40
2023-03-06T19:49:16.077Z,2.40
2023-03-06T19:51:50.828Z,2.40
2023-03-06T19:54:26.138Z,2.40
2023-03-06T19:57:00.623Z,2.40
2023-03-06T19:59:35.517Z,2.44
2023-03-06T20:02:12.846Z,2.48
2023-03-06T20:04:47.685Z,2.50
2023-03-06T20:07:22.318Z,2.42
2023-03-06T20:10:00.899Z,2.44
2023-03-06T20:12:36.329Z,2.50
2023-03-06T20:15:13.252Z,2.50
2023-03-06T20:17:48.200Z,2.60
2023-03-06T20:20:23.362Z,2.60
2023-03-06T20:23:02.654Z,2.60
2023-03-06T20:25:39.877Z,2.60
2023-03-06T20:28:14.406Z,2.62
2023-03-06T20:30:49.395Z,2.70
2023-03-06T20:33:27.194Z,2.70
2023-03-06T20:36:02.070Z,2.80
2023-03-06T20:38:36.670Z,2.80
2023-03-06T20:41:16.697Z,2.80
2023-03-06T20:43:51.305Z,2.80
2023-03-06T20:46:26.497Z,2.80
2023-03-06T20:49:02.034Z,2.80
2023-03-06T20:51:39.448Z,2.80
2023-03-06T20:54:17.145Z,2.78
2023-03-06T20:56:53.530Z,2.74
2023-03-06T20:59:28.660Z,2.74
2023-03-06T21:02:03.903Z,2.74
2023-03-06T21:04:41.140Z,2.78
2023-03-06T21:07:17.060Z,2.72
2023-03-06T21:09:52.335Z,2.72
2023-03-06T21:12:26.917Z,2.78
2023-03-06T21:15:01.402Z,2.80
2023-03-06T21:17:35.835Z,2.80
2023-03-06T21:20:12.883Z,2.80
2023-03-06T21:22:47.537Z,2.80
2023-03-06T21:25:22.355Z,2.80
2023-03-06T21:27:57.354Z,2.80
2023-03-06T21:30:32.908Z,2.80
2023-03-06T21:33:10.763Z,2.80
2023-03-06T21:35:46.222Z,2.80
2023-03-06T21:38:21.094Z,2.80
2023-03-06T21:40:56.083Z,2.74
2023-03-06T21:43:31.044Z,2.70
2023-03-06T21:46:06.362Z,2.80
2023-03-06T21:48:41.137Z,2.78
2023-03-06T21:51:19.085Z,2.80
2023-03-06T21:53:54.982Z,2.80
2023-03-06T21:56:30.619Z,2.70
2023-03-06T21:59:05.109Z,2.70
2023-03-06T22:01:39.850Z,2.70
2023-03-06T22:04:14.417Z,2.70
2023-03-06T22:06:48.890Z,2.78
2023-03-06T22:09:23.576Z,2.80
2023-03-06T22:11:58.412Z,2.76
2023-03-06T22:14:32.971Z,2.70
2023-03-06T22:17:07.653Z,2.70
2023-03-06T22:19:43.644Z,2.70
2023-03-06T22:22:19.073Z,2.70
2023-03-06T22:24:53.703Z,2.80
2023-03-06T22:27:29.904Z,2.80
2023-03-06T22:30:04.622Z,2.80
2023-03-06T22:32:39.062Z,2.80
2023-03-06T22:35:14.383Z,2.80
2023-03-06T22:37:49.387Z,2.80
2023-03-06T22:40:24.519Z,2.80
2023-03-06T22:56:29.624Z,2.90
2023-03-06T22:59:04.472Z,2.90
2023-03-06T23:01:39.802Z,2.90
2023-03-06T23:04:15.123Z,2.90
2023-03-06T23:06:50.318Z,2.90
2023-03-06T23:09:26.069Z,2.90
2023-03-06T23:12:19.188Z,2.88
2023-03-06T23:15:13.460Z,2.80
2023-03-06T23:18:06.713Z,2.80
2023-03-06T23:20:59.849Z,2.80
2023-03-06T23:23:55.580Z,2.80
2023-03-06T23:26:34.265Z,2.80
2023-03-06T23:29:08.675Z,2.80
2023-03-06T23:31:43.364Z,2.80
2023-03-06T23:34:17.707Z,2.80
2023-03-06T23:36:52.609Z,2.80
2023-03-06T23:39:28.006Z,2.72
2023-03-06T23:42:02.615Z,2.70
2023-03-06T23:44:39.176Z,2.70
2023-03-06T23:47:13.606Z,2.70
2023-03-06T23:49:48.200Z,2.70
2023-03-06T23:52:23.311Z,2.70
2023-03-06T23:54:57.914Z,2.70
2023-03-06T23:57:34.166Z,2.70
